Terminal Aerodrome Forecast
Issued by NWS

Current Version | Previous Version | Graphics & Text | Print | Product List | Glossary On
Versions: 1 2 3 4 5 6 7 8 9 10 11 12 13 14 15 16 17 18 19 20 21 22 23 24 25 26 27 28 29 30 31 32
000
FTUS41 KRNK 262342
TAFLWB
TAF
KLWB 262342Z 2700/2724 29008G16KT 6SM -SN SCT011 OVC023
      TEMPO 2701/2705 1SM -SN BR OVC012
     FM270500 29008G16KT 6SM -SN OVC015
     FM271200 29009G17KT 4SM -SN OVC012
      TEMPO 2713/2717 1SM -SN BR
     FM271700 30008G16KT P6SM -SHSN SCT013 OVC015
      TEMPO 2717/2721 5SM -SHSN BKN013=

USA.gov is the U.S. government's official web portal to all federal, state and local government web resources and services.